createdAt,value
2017-02-17T00:00:07.489Z,964.02
2017-02-17T00:01:08.339Z,964.04
2017-02-17T00:02:07.983Z,963.99
2017-02-17T00:03:07.950Z,963.96
2017-02-17T00:04:07.412Z,963.96
2017-02-17T00:05:08.023Z,963.94
2017-02-17T00:06:07.612Z,963.98
2017-02-17T00:07:08.238Z,963.90
2017-02-17T00:08:07.819Z,963.92
2017-02-17T00:09:07.455Z,963.91
2017-02-17T00:10:07.977Z,963.91
2017-02-17T00:11:07.676Z,963.86
2017-02-17T00:12:08.470Z,963.89
2017-02-17T00:13:08.050Z,963.88
2017-02-17T00:14:07.749Z,963.85
2017-02-17T00:15:07.879Z,963.82
2017-02-17T00:16:07.376Z,963.81
2017-02-17T00:17:08.045Z,963.79
2017-02-17T00:18:07.658Z,963.76
2017-02-17T00:19:08.322Z,963.80
2017-02-17T00:20:07.938Z,963.74
2017-02-17T00:21:07.572Z,963.70
2017-02-17T00:22:08.027Z,963.69
2017-02-17T00:23:07.577Z,963.69
2017-02-17T00:24:08.093Z,963.72
2017-02-17T00:25:07.628Z,963.72
2017-02-17T00:26:08.232Z,963.73
2017-02-17T00:27:07.737Z,963.71
2017-02-17T00:28:08.373Z,963.68
2017-02-17T00:29:07.885Z,963.68
2017-02-17T00:30:07.388Z,963.66
2017-02-17T00:31:07.934Z,963.68
2017-02-17T00:32:07.610Z,963.64
2017-02-17T00:33:08.172Z,963.67
2017-02-17T00:34:07.768Z,963.65
2017-02-17T00:35:07.319Z,963.68
2017-02-17T00:36:08.059Z,963.64
2017-02-17T00:37:07.678Z,963.67
2017-02-17T00:38:08.323Z,963.69
2017-02-17T00:39:07.953Z,963.65
2017-02-17T00:40:07.462Z,963.72
2017-02-17T00:41:08.036Z,963.66
2017-02-17T00:42:07.562Z,963.67
2017-02-17T00:43:08.210Z,963.64
2017-02-17T00:44:07.843Z,963.61
2017-02-17T00:45:07.371Z,963.58
2017-02-17T00:46:07.777Z,963.59
2017-02-17T00:47:07.280Z,963.63
2017-02-17T00:48:07.845Z,963.61
2017-02-17T00:49:07.375Z,963.60
2017-02-17T00:50:08.004Z,963.60
2017-02-17T00:51:07.532Z,963.60
2017-02-17T00:52:08.130Z,963.58
2017-02-17T00:53:07.680Z,963.57
2017-02-17T00:54:08.549Z,963.59
2017-02-17T00:55:08.262Z,963.58
2017-02-17T00:56:07.876Z,963.59
2017-02-17T00:57:07.468Z,963.56
2017-02-17T00:58:08.138Z,963.57
2017-02-17T00:59:07.726Z,963.55
2017-02-17T01:00:08.431Z,963.54
2017-02-17T01:01:08.058Z,963.52
2017-02-17T01:02:07.652Z,963.57
2017-02-17T01:03:08.347Z,963.54
2017-02-17T01:04:07.905Z,963.52
2017-02-17T01:05:07.681Z,963.53
2017-02-17T01:06:08.638Z,963.52
2017-02-17T01:07:08.278Z,963.45
2017-02-17T01:08:07.914Z,963.45
2017-02-17T01:09:07.423Z,963.47
2017-02-17T01:10:07.345Z,963.48
2017-02-17T01:11:07.895Z,963.45
2017-02-17T01:12:07.419Z,963.50
2017-02-17T01:13:07.995Z,963.44
2017-02-17T01:14:07.865Z,963.40
2017-02-17T01:15:07.900Z,963.39
2017-02-17T01:16:07.391Z,963.42
2017-02-17T01:17:07.981Z,963.47
2017-02-17T01:18:08.389Z,963.44
2017-02-17T01:19:07.911Z,963.43
2017-02-17T01:20:07.522Z,963.40
2017-02-17T01:21:08.073Z,963.38
2017-02-17T01:22:07.600Z,963.40
2017-02-17T01:23:08.124Z,963.42
2017-02-17T01:24:07.651Z,963.42
2017-02-17T01:25:08.153Z,963.38
2017-02-17T01:26:07.720Z,963.33
2017-02-17T01:27:08.503Z,963.34
2017-02-17T01:28:08.128Z,963.29
2017-02-17T01:29:07.734Z,963.31
2017-02-17T01:30:08.581Z,963.29
2017-02-17T01:31:08.161Z,963.33
2017-02-17T01:32:08.061Z,963.31
2017-02-17T01:33:07.572Z,963.30
2017-02-17T01:34:08.265Z,963.23
2017-02-17T01:35:07.938Z,963.24
2017-02-17T01:36:07.435Z,963.15
2017-02-17T01:37:07.992Z,963.19
2017-02-17T01:38:07.859Z,963.22
2017-02-17T01:39:07.621Z,963.13
2017-02-17T01:40:08.104Z,963.10
2017-02-17T01:41:07.953Z,963.13
2017-02-17T01:42:07.700Z,963.13
2017-02-17T01:43:08.334Z,963.17
2017-02-17T01:44:08.081Z,963.09
2017-02-17T01:45:07.672Z,963.08
2017-02-17T01:46:08.315Z,963.05
2017-02-17T01:47:07.852Z,963.05
2017-02-17T01:48:07.661Z,963.08
2017-02-17T01:49:08.289Z,963.09
2017-02-17T01:50:32.491Z,963.09
2017-02-17T01:51:08.088Z,963.03
2017-02-17T01:52:07.623Z,963.05
2017-02-17T01:53:08.230Z,962.97
2017-02-17T01:54:08.815Z,962.96
2017-02-17T01:55:07.476Z,962.93
2017-02-17T01:56:08.125Z,962.94
2017-02-17T01:57:07.744Z,962.94
2017-02-17T01:58:07.786Z,962.92
2017-02-17T01:59:07.450Z,962.90
2017-02-17T02:00:08.034Z,962.89
2017-02-17T02:01:07.595Z,962.88
2017-02-17T02:02:08.222Z,962.86
2017-02-17T02:03:07.967Z,962.89
2017-02-17T02:04:07.457Z,962.83
2017-02-17T02:05:08.126Z,962.88
2017-02-17T02:06:07.754Z,962.87
2017-02-17T02:07:07.360Z,962.83
2017-02-17T02:08:07.847Z,962.76
2017-02-17T02:09:07.479Z,962.79
2017-02-17T02:10:08.248Z,962.77
2017-02-17T02:11:07.770Z,962.77
2017-02-17T02:12:07.249Z,962.77
2017-02-17T02:13:07.765Z,962.71
2017-02-17T02:14:07.327Z,962.73
2017-02-17T02:15:07.943Z,962.76
2017-02-17T02:16:07.487Z,962.70
2017-02-17T02:17:08.188Z,962.69
2017-02-17T02:18:08.025Z,962.73
2017-02-17T02:19:07.646Z,962.67
2017-02-17T02:20:08.301Z,962.65
2017-02-17T02:21:07.884Z,962.67
2017-02-17T02:22:07.569Z,962.65
2017-02-17T02:23:08.245Z,962.65
2017-02-17T02:24:08.077Z,962.69
2017-02-17T02:25:07.580Z,962.61
2017-02-17T02:26:08.193Z,962.68
2017-02-17T02:27:07.885Z,962.64
2017-02-17T02:28:07.463Z,962.63
2017-02-17T02:29:07.923Z,962.67
2017-02-17T02:30:07.512Z,962.67
2017-02-17T02:31:08.067Z,962.63
2017-02-17T02:32:07.700Z,962.62
2017-02-17T02:33:08.524Z,962.61
2017-02-17T02:34:08.167Z,962.62
2017-02-17T02:35:07.741Z,962.63
2017-02-17T02:36:08.306Z,962.59
2017-02-17T02:37:07.922Z,962.60
2017-02-17T02:38:07.560Z,962.61
2017-02-17T02:39:08.171Z,962.59
2017-02-17T02:40:07.713Z,962.58
2017-02-17T02:41:08.415Z,962.62
2017-02-17T02:42:08.050Z,962.58
2017-02-17T02:43:07.563Z,962.55
2017-02-17T02:44:08.210Z,962.58
2017-02-17T02:45:07.849Z,962.58
2017-02-17T02:46:07.376Z,962.51
2017-02-17T02:47:07.906Z,962.48
2017-02-17T02:48:07.476Z,962.50
2017-02-17T02:49:08.893Z,962.49
2017-02-17T02:50:07.718Z,962.51
2017-02-17T02:51:08.272Z,962.55
2017-02-17T02:52:07.851Z,962.51
2017-02-17T02:53:07.424Z,962.57
2017-02-17T02:54:08.294Z,962.51
2017-02-17T02:55:07.834Z,962.55
2017-02-17T02:56:07.261Z,962.51
2017-02-17T02:57:07.993Z,962.52
2017-02-17T02:58:07.530Z,962.52
2017-02-17T02:59:08.185Z,962.52
2017-02-17T03:00:07.721Z,962.52
2017-02-17T03:01:08.360Z,962.56
2017-02-17T03:02:08.130Z,962.59
2017-02-17T03:03:08.016Z,962.59
2017-02-17T03:04:07.799Z,962.60
2017-02-17T03:05:07.501Z,962.58
2017-02-17T03:06:08.031Z,962.60
2017-02-17T03:07:07.557Z,962.67
2017-02-17T03:08:08.166Z,962.65
2017-02-17T03:09:07.762Z,962.68
2017-02-17T03:10:07.310Z,962.69
2017-02-17T03:11:07.932Z,962.67
2017-02-17T03:12:07.485Z,962.69
2017-02-17T03:13:08.115Z,962.67
2017-02-17T03:14:07.630Z,962.68
2017-02-17T03:15:08.515Z,962.66
2017-02-17T03:16:08.127Z,962.68
2017-02-17T03:17:07.843Z,962.70
2017-02-17T03:18:07.855Z,962.67
2017-02-17T03:19:07.340Z,962.64
2017-02-17T03:20:07.920Z,962.61
2017-02-17T03:21:07.514Z,962.58
2017-02-17T03:22:08.229Z,962.62
2017-02-17T03:23:07.699Z,962.67
2017-02-17T03:24:08.587Z,962.66
2017-02-17T03:25:08.334Z,962.59
2017-02-17T03:26:07.848Z,962.63
2017-02-17T03:27:07.768Z,962.63
2017-02-17T03:28:07.351Z,962.64
2017-02-17T03:29:09.213Z,962.59
2017-02-17T03:30:07.897Z,962.60
2017-02-17T03:31:07.389Z,962.57
2017-02-17T03:32:08.117Z,962.61
2017-02-17T03:33:07.630Z,962.56
2017-02-17T03:34:08.442Z,962.59
2017-02-17T03:35:08.030Z,962.56
2017-02-17T03:36:07.654Z,962.59
2017-02-17T03:37:08.278Z,962.62
2017-02-17T03:38:07.790Z,962.62
2017-02-17T03:39:07.442Z,962.59
2017-02-17T03:40:08.205Z,962.67
2017-02-17T03:41:07.663Z,962.63
2017-02-17T03:42:08.342Z,962.64
2017-02-17T03:43:07.926Z,962.72
2017-02-17T03:44:07.479Z,962.75
2017-02-17T03:45:08.081Z,962.76
2017-02-17T03:46:07.714Z,962.80
2017-02-17T03:47:08.369Z,962.80
2017-02-17T03:48:08.103Z,962.75
2017-02-17T03:49:07.761Z,962.76
2017-02-17T03:50:07.265Z,962.69
2017-02-17T03:51:07.875Z,962.70
2017-02-17T03:52:07.363Z,962.68
2017-02-17T03:53:07.931Z,962.63
2017-02-17T03:54:07.542Z,962.57
2017-02-17T03:55:08.152Z,962.61
2017-02-17T03:56:07.992Z,962.54
2017-02-17T03:57:07.515Z,962.66
2017-02-17T03:58:08.127Z,962.69
2017-02-17T03:59:07.722Z,962.73
2017-02-17T04:00:08.410Z,962.68
2017-02-17T04:01:08.000Z,962.62
2017-02-17T04:02:07.724Z,962.66
2017-02-17T04:03:08.364Z,962.65
2017-02-17T04:04:07.941Z,962.64
2017-02-17T04:05:07.574Z,962.68
2017-02-17T04:06:08.122Z,962.65
2017-02-17T04:07:07.649Z,962.68
2017-02-17T04:08:08.240Z,962.66
2017-02-17T04:09:08.033Z,962.70
2017-02-17T04:10:07.663Z,962.69
2017-02-17T04:11:08.299Z,962.66
2017-02-17T04:12:07.896Z,962.65
2017-02-17T04:13:07.548Z,962.68
2017-02-17T04:14:08.328Z,962.66
2017-02-17T04:15:07.896Z,962.64
2017-02-17T04:16:07.351Z,962.63
2017-02-17T04:17:08.369Z,962.64
2017-02-17T04:18:07.985Z,962.63
2017-02-17T04:19:07.890Z,962.71
2017-02-17T04:20:07.486Z,962.72
2017-02-17T04:21:08.243Z,962.73
2017-02-17T04:22:07.371Z,962.76
2017-02-17T04:23:08.013Z,962.72
2017-02-17T04:24:07.597Z,962.79
2017-02-17T04:25:08.210Z,962.75
2017-02-17T04:26:07.946Z,962.87
2017-02-17T04:27:07.611Z,962.84
2017-02-17T04:28:08.217Z,962.84
2017-02-17T04:29:07.860Z,962.83
2017-02-17T04:30:07.360Z,962.86
2017-02-17T04:31:08.037Z,962.80
2017-02-17T04:32:07.640Z,962.83
2017-02-17T04:33:08.217Z,962.81
2017-02-17T04:34:07.862Z,962.85
2017-02-17T04:35:07.425Z,962.84
2017-02-17T04:36:07.994Z,962.85
2017-02-17T04:37:07.509Z,962.77
2017-02-17T04:38:08.014Z,962.70
2017-02-17T04:39:07.642Z,962.80
2017-02-17T04:40:08.162Z,962.88
2017-02-17T04:41:07.856Z,962.82
2017-02-17T04:42:07.771Z,962.84
2017-02-17T04:43:07.328Z,962.85
2017-02-17T04:44:07.939Z,962.82
2017-02-17T04:45:07.530Z,962.86
2017-02-17T04:46:08.120Z,962.88
2017-02-17T04:47:07.620Z,962.91
2017-02-17T04:48:08.179Z,962.93
2017-02-17T04:49:07.752Z,962.95
2017-02-17T04:50:07.482Z,962.94
2017-02-17T04:51:08.289Z,962.94
2017-02-17T04:52:08.113Z,962.94
2017-02-17T04:53:07.677Z,962.97
2017-02-17T04:54:08.324Z,962.93
2017-02-17T04:55:07.921Z,962.87
2017-02-17T04:56:07.456Z,962.88
2017-02-17T04:57:08.059Z,962.91
2017-02-17T04:58:07.665Z,962.88
2017-02-17T04:59:08.294Z,962.86
2017-02-17T05:00:07.901Z,962.86
2017-02-17T05:01:07.472Z,962.81
2017-02-17T05:02:08.253Z,962.82
2017-02-17T05:03:08.073Z,962.76
2017-02-17T05:04:07.755Z,962.75
2017-02-17T05:05:07.284Z,962.66
2017-02-17T05:06:07.810Z,962.66
2017-02-17T05:07:07.388Z,962.69
2017-02-17T05:08:08.194Z,962.70
2017-02-17T05:09:07.744Z,962.68
2017-02-17T05:10:07.247Z,962.72
2017-02-17T05:11:07.813Z,962.69
2017-02-17T05:12:07.349Z,962.78
2017-02-17T05:13:08.024Z,962.75
2017-02-17T05:14:07.578Z,962.70
2017-02-17T05:15:08.221Z,962.71
2017-02-17T05:16:07.524Z,962.70
2017-02-17T05:17:08.272Z,962.70
2017-02-17T05:18:07.815Z,962.65
2017-02-17T05:19:07.427Z,962.59
2017-02-17T05:20:08.031Z,962.57
2017-02-17T05:21:07.650Z,962.57
2017-02-17T05:22:08.213Z,962.58
2017-02-17T05:23:07.842Z,962.56
2017-02-17T05:24:07.443Z,962.53
2017-02-17T05:25:10.907Z,962.52
2017-02-17T05:26:07.566Z,962.45
2017-02-17T05:27:17.332Z,962.51
2017-02-17T05:28:07.959Z,962.46
2017-02-17T05:29:07.528Z,962.53
2017-02-17T05:30:08.124Z,962.58
2017-02-17T05:31:07.691Z,962.53
2017-02-17T05:32:08.457Z,962.56
2017-02-17T05:33:08.025Z,962.49
2017-02-17T05:34:08.451Z,962.54
2017-02-17T05:35:08.052Z,962.55
2017-02-17T05:36:07.559Z,962.51
2017-02-17T05:37:08.096Z,962.56
2017-02-17T05:38:07.723Z,962.57
2017-02-17T05:39:08.295Z,962.52
2017-02-17T05:40:07.792Z,962.62
2017-02-17T05:41:07.305Z,962.63
2017-02-17T05:42:07.868Z,962.56
2017-02-17T05:43:07.407Z,962.60
2017-02-17T05:44:08.021Z,962.55
2017-02-17T05:45:07.593Z,962.62
2017-02-17T05:46:08.427Z,962.55
2017-02-17T05:47:08.030Z,962.53
2017-02-17T05:48:08.263Z,962.63
2017-02-17T05:49:07.991Z,962.57
2017-02-17T05:50:07.495Z,962.56
2017-02-17T05:51:08.019Z,962.52
2017-02-17T05:52:07.589Z,962.56
2017-02-17T05:53:08.237Z,962.55
2017-02-17T05:54:07.847Z,962.58
2017-02-17T05:55:07.421Z,962.53
2017-02-17T05:56:08.035Z,962.50
2017-02-17T05:57:07.903Z,962.51
2017-02-17T05:58:07.556Z,962.54
2017-02-17T05:59:08.154Z,962.50
2017-02-17T06:00:07.813Z,962.52
2017-02-17T06:01:07.270Z,962.50
2017-02-17T06:02:07.800Z,962.50
2017-02-17T06:03:07.281Z,962.48
2017-02-17T06:04:07.771Z,962.47
2017-02-17T06:05:07.303Z,962.50
2017-02-17T06:06:07.875Z,962.49
2017-02-17T06:07:07.960Z,962.51
2017-02-17T06:08:07.439Z,962.51
2017-02-17T06:09:07.931Z,962.52
2017-02-17T06:10:07.475Z,962.51
2017-02-17T06:11:08.061Z,962.55
2017-02-17T06:12:07.654Z,962.56
2017-02-17T06:13:08.179Z,962.50
2017-02-17T06:14:07.741Z,962.54
2017-02-17T06:15:09.202Z,962.49
2017-02-17T06:16:07.367Z,962.49
2017-02-17T06:17:08.231Z,962.49
2017-02-17T06:18:07.876Z,962.54
2017-02-17T06:19:07.629Z,962.55
2017-02-17T06:20:08.687Z,962.58
2017-02-17T06:21:08.272Z,962.54
2017-02-17T06:22:07.842Z,962.60
2017-02-17T06:23:07.361Z,962.60
2017-02-17T06:24:07.820Z,962.61
2017-02-17T06:25:07.270Z,962.59
2017-02-17T06:26:07.792Z,962.61
2017-02-17T06:27:07.590Z,962.61
2017-02-17T06:28:08.681Z,962.57
2017-02-17T06:29:08.320Z,962.57
2017-02-17T06:30:08.209Z,962.61
2017-02-17T06:31:08.038Z,962.62
2017-02-17T06:32:07.680Z,962.62
2017-02-17T06:33:08.275Z,962.64
2017-02-17T06:34:07.828Z,962.62
2017-02-17T06:35:07.379Z,962.62
2017-02-17T06:36:08.045Z,962.62
2017-02-17T06:37:07.662Z,962.64
2017-02-17T06:38:08.192Z,962.62
2017-02-17T06:39:07.803Z,962.60
2017-02-17T06:40:07.624Z,962.62
2017-02-17T06:41:08.302Z,962.62
2017-02-17T06:42:08.004Z,962.64
2017-02-17T06:43:07.519Z,962.60
2017-02-17T06:44:08.116Z,962.58
2017-02-17T06:45:07.808Z,962.65
2017-02-17T06:46:07.444Z,962.59
2017-02-17T06:47:08.164Z,962.63
2017-02-17T06:48:07.766Z,962.58
2017-02-17T06:49:07.281Z,962.58
2017-02-17T06:50:07.904Z,962.60
2017-02-17T06:51:07.701Z,962.61
2017-02-17T06:52:08.311Z,962.62
2017-02-17T06:53:07.984Z,962.60
2017-02-17T06:54:07.514Z,962.60
2017-02-17T06:55:08.025Z,962.59
2017-02-17T06:56:07.598Z,962.59
2017-02-17T06:57:08.183Z,962.54
2017-02-17T06:58:07.774Z,962.52
2017-02-17T06:59:07.294Z,962.49
2017-02-17T07:00:07.883Z,962.46
2017-02-17T07:01:07.649Z,962.50
2017-02-17T07:02:08.664Z,962.48
2017-02-17T07:03:08.449Z,962.44
2017-02-17T07:04:08.188Z,962.45
2017-02-17T07:05:07.823Z,962.44
2017-02-17T07:06:07.357Z,962.43
2017-02-17T07:07:07.931Z,962.48
2017-02-17T07:08:07.424Z,962.45
2017-02-17T07:09:08.026Z,962.54
2017-02-17T07:10:07.639Z,962.49
2017-02-17T07:11:08.435Z,962.51
2017-02-17T07:12:08.028Z,962.50
2017-02-17T07:13:07.738Z,962.47
2017-02-17T07:14:08.365Z,962.53
2017-02-17T07:15:07.533Z,962.49
2017-02-17T07:16:08.034Z,962.59
2017-02-17T07:17:07.761Z,962.57
2017-02-17T07:18:07.274Z,962.60
2017-02-17T07:19:07.799Z,962.64
2017-02-17T07:20:08.108Z,962.60
2017-02-17T07:21:07.610Z,962.62
2017-02-17T07:22:08.246Z,962.61
2017-02-17T07:23:08.015Z,962.64
2017-02-17T07:24:07.660Z,962.59
2017-02-17T07:25:08.280Z,962.62
2017-02-17T07:26:07.808Z,962.64
2017-02-17T07:27:07.363Z,962.63
2017-02-17T07:28:07.897Z,962.69
2017-02-17T07:29:07.424Z,962.66
2017-02-17T07:30:08.045Z,962.64
2017-02-17T07:31:07.686Z,962.62
2017-02-17T07:32:08.405Z,962.67
2017-02-17T07:33:07.941Z,962.71
2017-02-17T07:34:07.739Z,962.69
2017-02-17T07:35:08.288Z,962.72
2017-02-17T07:36:07.813Z,962.73
2017-02-17T07:37:07.345Z,962.73
2017-02-17T07:38:07.841Z,962.73
2017-02-17T07:39:07.385Z,962.77
2017-02-17T07:40:07.950Z,962.75
2017-02-17T07:41:07.470Z,962.76
2017-02-17T07:42:08.080Z,962.75
2017-02-17T07:43:07.559Z,962.71
2017-02-17T07:44:08.062Z,962.69
2017-02-17T07:45:07.949Z,962.71
2017-02-17T07:46:07.443Z,962.69
2017-02-17T07:47:07.937Z,962.71
2017-02-17T07:48:07.557Z,962.68
2017-02-17T07:49:08.051Z,962.71
2017-02-17T07:50:07.599Z,962.65
2017-02-17T07:51:08.197Z,962.70
2017-02-17T07:52:07.842Z,962.72
2017-02-17T07:53:07.371Z,962.68
2017-02-17T07:54:08.002Z,962.67
2017-02-17T07:55:07.775Z,962.69
2017-02-17T07:56:07.341Z,962.68
2017-02-17T07:57:08.115Z,962.70
2017-02-17T07:58:07.706Z,962.69
2017-02-17T07:59:08.224Z,962.70
2017-02-17T08:00:07.837Z,962.68
2017-02-17T08:01:07.501Z,962.64
2017-02-17T08:02:08.214Z,962.68
2017-02-17T08:03:07.777Z,962.73
2017-02-17T08:04:07.397Z,962.73
2017-02-17T08:05:08.026Z,962.73
2017-02-17T08:06:07.560Z,962.75
2017-02-17T08:07:08.152Z,962.79
2017-02-17T08:08:07.989Z,962.75
2017-02-17T08:09:07.537Z,962.78
2017-02-17T08:10:08.143Z,962.75
2017-02-17T08:11:07.610Z,962.78
2017-02-17T08:12:08.237Z,962.81
2017-02-17T08:13:07.745Z,962.83
2017-02-17T08:14:07.285Z,962.81
2017-02-17T08:15:07.915Z,962.87
2017-02-17T08:16:07.786Z,962.87
2017-02-17T08:17:07.398Z,962.86
2017-02-17T08:18:08.000Z,962.89
2017-02-17T08:19:07.875Z,962.89
2017-02-17T08:20:07.450Z,962.94
2017-02-17T08:21:07.977Z,962.93
2017-02-17T08:22:07.655Z,962.92
2017-02-17T08:23:08.244Z,963.01
2017-02-17T08:24:07.691Z,963.00
2017-02-17T08:25:07.285Z,962.99
2017-02-17T08:26:07.851Z,963.01
2017-02-17T08:27:07.383Z,963.00
2017-02-17T08:28:07.977Z,962.97
2017-02-17T08:29:07.525Z,963.02
2017-02-17T08:30:08.136Z,963.06
2017-02-17T08:31:07.745Z,963.04
2017-02-17T08:32:08.478Z,962.98
2017-02-17T08:33:08.316Z,962.97
2017-02-17T08:34:07.875Z,962.94
2017-02-17T08:35:07.963Z,962.90
2017-02-17T08:36:07.498Z,962.90
2017-02-17T08:37:08.186Z,962.83
2017-02-17T08:38:07.687Z,962.89
2017-02-17T08:39:08.225Z,962.88
2017-02-17T08:40:07.906Z,962.93
2017-02-17T08:41:07.808Z,962.92
2017-02-17T08:42:07.363Z,962.95
2017-02-17T08:43:07.871Z,962.96
2017-02-17T08:44:07.391Z,962.97
2017-02-17T08:45:07.939Z,962.97
2017-02-17T08:46:07.544Z,962.94
2017-02-17T08:47:07.503Z,962.93
2017-02-17T08:48:08.378Z,962.97
2017-02-17T08:49:08.152Z,962.99
2017-02-17T08:50:07.743Z,962.94
2017-02-17T08:51:08.372Z,962.95
2017-02-17T08:52:07.984Z,962.96
2017-02-17T08:53:07.535Z,962.93
2017-02-17T08:54:08.074Z,962.90
2017-02-17T08:55:07.574Z,962.94
2017-02-17T08:56:08.100Z,962.96
2017-02-17T08:57:08.171Z,962.99
2017-02-17T08:58:07.685Z,962.99
2017-02-17T08:59:08.271Z,962.95
2017-02-17T09:00:07.853Z,962.98
2017-02-17T09:01:07.528Z,962.98
2017-02-17T09:02:08.360Z,962.99
2017-02-17T09:03:07.928Z,962.97
2017-02-17T09:04:07.471Z,962.95
2017-02-17T09:05:08.106Z,962.94
2017-02-17T09:06:07.658Z,962.91
2017-02-17T09:07:08.252Z,962.96
2017-02-17T09:08:08.103Z,962.93
2017-02-17T09:09:07.761Z,962.96
2017-02-17T09:10:07.532Z,962.93
2017-02-17T09:11:08.045Z,962.91
2017-02-17T09:12:08.053Z,962.91
2017-02-17T09:13:07.594Z,962.92
2017-02-17T09:14:08.304Z,962.94
2017-02-17T09:15:07.823Z,962.95
2017-02-17T09:16:07.392Z,962.92
2017-02-17T09:17:08.154Z,962.96
2017-02-17T09:18:07.778Z,962.95
2017-02-17T09:19:07.914Z,962.96
2017-02-17T09:20:07.802Z,962.94
2017-02-17T09:21:07.460Z,962.96
2017-02-17T09:22:08.337Z,962.90
2017-02-17T09:23:07.883Z,962.95
2017-02-17T09:24:07.459Z,962.93
2017-02-17T09:25:08.043Z,962.96
2017-02-17T09:26:07.614Z,962.98
2017-02-17T09:27:08.615Z,962.98
2017-02-17T09:28:08.202Z,963.04
2017-02-17T09:29:07.697Z,962.99
2017-02-17T09:30:08.212Z,962.98
2017-02-17T09:31:07.913Z,963.05
2017-02-17T09:32:07.981Z,963.07
2017-02-17T09:33:07.574Z,963.06
2017-02-17T09:34:08.200Z,963.13
2017-02-17T09:35:07.715Z,963.16
2017-02-17T09:36:08.269Z,963.20
2017-02-17T09:37:07.812Z,963.19
2017-02-17T09:38:07.342Z,963.23
2017-02-17T09:39:07.906Z,963.24
2017-02-17T09:40:07.736Z,963.22
2017-02-17T09:41:08.579Z,963.24
2017-02-17T09:42:08.212Z,963.25
2017-02-17T09:43:07.732Z,963.24
2017-02-17T09:44:08.303Z,963.26
2017-02-17T09:45:07.815Z,963.20
2017-02-17T09:46:07.322Z,963.22
2017-02-17T09:47:07.845Z,963.23
2017-02-17T09:48:07.472Z,963.27
2017-02-17T09:49:08.127Z,963.30
2017-02-17T09:50:07.769Z,963.29
2017-02-17T09:51:07.526Z,963.28
2017-02-17T09:52:08.115Z,963.30
2017-02-17T09:53:07.861Z,963.28
2017-02-17T09:54:07.389Z,963.29
2017-02-17T09:55:07.984Z,963.26
2017-02-17T09:56:07.407Z,963.21
2017-02-17T09:57:08.102Z,963.23
2017-02-17T09:58:08.582Z,963.22
2017-02-17T09:59:08.174Z,963.30
2017-02-17T10:00:07.804Z,963.19
2017-02-17T10:01:07.681Z,963.23
2017-02-17T10:02:08.430Z,963.20
2017-02-17T10:03:08.303Z,963.16
2017-02-17T10:04:08.133Z,963.20
2017-02-17T10:05:07.617Z,963.21
2017-02-17T10:06:08.149Z,963.20
2017-02-17T10:07:07.694Z,963.22
2017-02-17T10:08:08.541Z,963.25
2017-02-17T10:09:08.098Z,963.27
2017-02-17T10:10:07.721Z,963.23
2017-02-17T10:11:08.336Z,963.24
2017-02-17T10:12:07.887Z,963.25
2017-02-17T10:13:07.468Z,963.24
2017-02-17T10:14:08.048Z,963.27
2017-02-17T10:15:07.621Z,963.25
2017-02-17T10:16:08.267Z,963.28
2017-02-17T10:17:07.931Z,963.25
2017-02-17T10:18:07.531Z,963.27
2017-02-17T10:19:08.098Z,963.21
2017-02-17T10:20:07.791Z,963.29
2017-02-17T10:21:07.290Z,963.28
2017-02-17T10:22:07.751Z,963.29
2017-02-17T10:23:07.729Z,963.32
2017-02-17T10:24:08.446Z,963.28
2017-02-17T10:25:08.324Z,963.32
2017-02-17T10:26:07.891Z,963.33
2017-02-17T10:27:07.363Z,963.30
2017-02-17T10:28:07.880Z,963.32
2017-02-17T10:29:07.390Z,963.28
2017-02-17T10:30:07.901Z,963.33
2017-02-17T10:31:07.531Z,963.33
2017-02-17T10:32:08.137Z,963.31
2017-02-17T10:33:08.032Z,963.27
2017-02-17T10:34:07.903Z,963.29
2017-02-17T10:35:07.572Z,963.30
2017-02-17T10:36:07.306Z,963.30
2017-02-17T10:37:07.812Z,963.32
2017-02-17T10:38:07.284Z,963.32
2017-02-17T10:39:07.820Z,963.34
2017-02-17T10:40:07.393Z,963.36
2017-02-17T10:41:08.032Z,963.44
2017-02-17T10:42:07.580Z,963.34
2017-02-17T10:43:08.149Z,963.39
2017-02-17T10:44:07.789Z,963.39
2017-02-17T10:45:07.638Z,963.38
2017-02-17T10:46:08.200Z,963.40
2017-02-17T10:47:07.788Z,963.37
2017-02-17T10:48:07.310Z,963.44
2017-02-17T10:49:08.096Z,963.42
2017-02-17T10:50:07.703Z,963.38
2017-02-17T10:51:08.301Z,963.39
2017-02-17T10:52:07.928Z,963.36
2017-02-17T10:53:07.462Z,963.34
2017-02-17T10:54:08.059Z,963.36
2017-02-17T10:55:07.796Z,963.35
2017-02-17T10:56:07.574Z,963.30
2017-02-17T10:57:08.252Z,963.29
2017-02-17T10:58:07.919Z,963.29
2017-02-17T10:59:07.400Z,963.27
2017-02-17T11:00:08.075Z,963.23
2017-02-17T11:01:07.663Z,963.23
2017-02-17T11:02:08.336Z,963.23
2017-02-17T11:03:07.881Z,963.23
2017-02-17T11:04:07.404Z,963.24
2017-02-17T11:05:07.993Z,963.28
2017-02-17T11:06:07.790Z,963.24
2017-02-17T11:07:07.322Z,963.26
2017-02-17T11:08:08.016Z,963.24
2017-02-17T11:09:07.530Z,963.22
2017-02-17T11:10:08.157Z,963.17
2017-02-17T11:11:07.678Z,963.19
2017-02-17T11:12:08.315Z,963.20
2017-02-17T11:13:07.813Z,963.17
2017-02-17T11:14:07.309Z,963.20
2017-02-17T11:15:07.838Z,963.18
2017-02-17T11:16:08.642Z,963.18
2017-02-17T11:17:08.354Z,963.15
2017-02-17T11:18:07.980Z,963.21
2017-02-17T11:19:07.666Z,963.20
2017-02-17T11:20:08.574Z,963.19
2017-02-17T11:21:08.188Z,963.23
2017-02-17T11:22:07.974Z,963.20
2017-02-17T11:23:07.547Z,963.19
2017-02-17T11:24:08.362Z,963.18
2017-02-17T11:25:08.014Z,963.20
2017-02-17T11:26:07.688Z,963.20
2017-02-17T11:27:08.265Z,963.13
2017-02-17T11:28:08.122Z,963.21
2017-02-17T11:29:07.717Z,963.16
2017-02-17T11:30:08.369Z,963.18
2017-02-17T11:31:07.906Z,963.15
2017-02-17T11:32:07.628Z,963.16
2017-02-17T11:33:08.141Z,963.18
2017-02-17T11:34:27.276Z,963.12
2017-02-17T11:35:07.930Z,963.14
2017-02-17T11:36:07.464Z,963.10
2017-02-17T11:37:08.031Z,963.08
2017-02-17T11:38:07.925Z,963.09
2017-02-17T11:39:07.555Z,963.13
2017-02-17T11:40:08.386Z,963.09
2017-02-17T11:41:08.000Z,963.08
2017-02-17T11:42:07.536Z,963.10
2017-02-17T11:43:08.317Z,963.10
2017-02-17T11:44:07.926Z,963.10
2017-02-17T11:45:07.543Z,963.08
2017-02-17T11:46:08.273Z,963.14
2017-02-17T11:47:07.859Z,963.11
2017-02-17T11:48:07.805Z,963.21
2017-02-17T11:49:07.642Z,963.19
2017-02-17T11:50:08.524Z,963.13
2017-02-17T11:51:08.382Z,963.20
2017-02-17T11:52:08.030Z,963.15
2017-02-17T11:53:07.770Z,963.15
2017-02-17T11:54:07.334Z,963.17
2017-02-17T11:55:07.896Z,963.20
2017-02-17T11:56:07.537Z,963.22
2017-02-17T11:57:08.030Z,963.20
2017-02-17T11:58:07.596Z,963.16
2017-02-17T11:59:07.548Z,963.16
2017-02-17T12:00:08.209Z,963.13
2017-02-17T12:01:07.846Z,963.16
2017-02-17T12:02:07.461Z,963.18
2017-02-17T12:03:07.320Z,963.17
2017-02-17T12:04:08.336Z,963.22
2017-02-17T12:05:07.923Z,963.21
2017-02-17T12:06:07.525Z,963.24
2017-02-17T12:07:08.020Z,963.19
2017-02-17T12:08:07.524Z,963.24
2017-02-17T12:09:08.103Z,963.21
2017-02-17T12:10:07.757Z,963.21
2017-02-17T12:11:07.626Z,963.17
2017-02-17T12:12:08.245Z,963.18
2017-02-17T12:13:07.870Z,963.19
2017-02-17T12:14:07.427Z,963.16
2017-02-17T12:15:08.025Z,963.18
2017-02-17T12:16:07.629Z,963.24
2017-02-17T12:17:08.382Z,963.19
2017-02-17T12:18:08.046Z,963.22
2017-02-17T12:19:07.584Z,963.25
2017-02-17T12:20:08.194Z,963.23
2017-02-17T12:21:07.774Z,963.21
2017-02-17T12:22:07.390Z,963.20
2017-02-17T12:23:08.013Z,963.19
2017-02-17T12:24:07.567Z,963.28
2017-02-17T12:25:08.148Z,963.26
2017-02-17T12:26:07.734Z,963.26
2017-02-17T12:27:17.271Z,963.28
2017-02-17T12:28:07.772Z,963.31